createdAt,value
2023-04-09T00:01:11.720Z,9.77
2023-04-09T00:06:14.545Z,10.01
2023-04-09T00:11:18.468Z,12.27
2023-04-09T00:16:21.238Z,12.09
2023-04-09T00:21:24.030Z,10.12
2023-04-09T00:26:27.451Z,9.11
2023-04-09T00:31:30.470Z,10.98
2023-04-09T00:36:33.273Z,12.68
2023-04-09T00:41:36.128Z,12.14
2023-04-09T00:46:38.959Z,10.22
2023-04-09T00:51:42.620Z,9.08
2023-04-09T00:56:46.154Z,10.50
2023-04-09T01:01:49.114Z,12.45
2023-04-09T01:06:55.917Z,11.44
2023-04-09T01:11:59.768Z,9.74
2023-04-09T01:17:11.298Z,8.71
2023-04-09T01:22:31.335Z,9.27
2023-04-09T01:27:43.022Z,11.50
2023-04-09T01:32:46.119Z,12.09
2023-04-09T01:37:49.774Z,10.18
2023-04-09T01:42:54.666Z,8.48
2023-04-09T01:47:58.202Z,8.54
2023-04-09T01:53:01.713Z,10.90
2023-04-09T01:58:04.628Z,11.92
2023-04-09T02:03:25.074Z,10.16
2023-04-09T02:08:28.508Z,9.67
2023-04-09T02:13:33.097Z,11.57
2023-04-09T02:18:35.964Z,11.37
2023-04-09T02:23:38.752Z,9.12
2023-04-09T02:28:41.550Z,8.64
2023-04-09T02:33:44.340Z,10.54
2023-04-09T02:38:47.143Z,11.61
2023-04-09T02:43:50.366Z,10.76
2023-04-09T02:48:53.266Z,8.69
2023-04-09T02:53:56.205Z,9.02
2023-04-09T02:58:59.118Z,10.87
2023-04-09T03:04:02.489Z,10.94
2023-04-09T03:09:05.438Z,8.83
2023-04-09T03:14:08.287Z,8.68
2023-04-09T03:19:11.359Z,10.78
2023-04-09T03:24:14.346Z,11.71
2023-04-09T03:29:17.296Z,9.93
2023-04-09T03:34:20.153Z,8.26
2023-04-09T03:39:23.044Z,9.27
2023-04-09T03:44:25.980Z,11.33
2023-04-09T03:49:29.058Z,11.73
2023-04-09T03:54:31.990Z,9.51
2023-04-09T03:59:34.897Z,8.88
2023-04-09T04:04:37.885Z,10.71
2023-04-09T04:09:40.803Z,11.71
2023-04-09T04:14:43.747Z,11.93
2023-04-09T04:19:46.699Z,9.65
2023-04-09T04:24:49.595Z,9.21
2023-04-09T04:29:52.504Z,10.64
2023-04-09T04:34:55.424Z,11.54
2023-04-09T04:39:58.349Z,12.18
2023-04-09T04:45:01.350Z,10.83
2023-04-09T04:50:04.669Z,9.97
2023-04-09T04:55:08.720Z,11.28
2023-04-09T05:00:12.817Z,12.25
2023-04-09T05:05:15.961Z,11.02
2023-04-09T05:10:18.976Z,9.92
2023-04-09T05:15:21.983Z,11.46
2023-04-09T05:20:27.548Z,12.31
2023-04-09T05:25:30.478Z,12.24
2023-04-09T05:30:33.326Z,10.04
2023-04-09T05:35:39.343Z,10.75
2023-04-09T05:40:42.834Z,12.31
2023-04-09T05:45:45.653Z,12.41
2023-04-09T05:50:55.981Z,10.27
2023-04-09T05:55:58.935Z,10.35
2023-04-09T06:01:01.699Z,11.88
2023-04-09T06:06:04.798Z,11.81
2023-04-09T06:11:10.865Z,10.92
2023-04-09T06:16:13.703Z,12.55
2023-04-09T06:21:16.753Z,11.96
2023-04-09T06:26:19.538Z,10.87
2023-04-09T06:31:22.814Z,12.45
2023-04-09T06:36:27.316Z,13.06
2023-04-09T06:41:32.454Z,11.59
2023-04-09T06:46:35.548Z,11.29
2023-04-09T06:51:38.698Z,12.66
2023-04-09T06:56:44.910Z,13.45
2023-04-09T07:01:47.817Z,11.97
2023-04-09T07:06:52.799Z,11.01
2023-04-09T07:11:55.801Z,12.66
2023-04-09T07:16:58.647Z,13.47
2023-04-09T07:22:02.014Z,12.02
2023-04-09T07:27:06.935Z,11.43
2023-04-09T07:32:09.757Z,13.07
2023-04-09T07:37:13.006Z,13.83
2023-04-09T07:42:16.146Z,12.49
2023-04-09T07:47:19.059Z,12.87
2023-04-09T07:52:21.902Z,14.43
2023-04-09T07:57:25.858Z,13.33
2023-04-09T08:02:29.140Z,13.29
2023-04-09T08:07:33.312Z,14.61
2023-04-09T08:12:36.117Z,13.25
2023-04-09T08:17:38.922Z,12.89
2023-04-09T08:22:42.326Z,14.31
2023-04-09T08:27:45.252Z,13.02
2023-04-09T08:32:48.614Z,13.50
2023-04-09T08:37:52.101Z,14.95
2023-04-09T08:42:57.012Z,14.13
2023-04-09T08:48:00.707Z,13.78
2023-04-09T08:53:05.833Z,15.68
2023-04-09T08:58:12.850Z,14.77
2023-04-09T09:03:15.969Z,13.74
2023-04-09T09:08:26.242Z,15.40
2023-04-09T09:13:29.201Z,14.84
2023-04-09T09:18:42.850Z,14.28
2023-04-09T09:23:48.414Z,16.10
2023-04-09T09:28:52.203Z,15.17
2023-04-09T09:33:55.507Z,14.76
2023-04-09T09:39:04.324Z,16.09
2023-04-09T09:44:08.258Z,14.68
2023-04-09T09:49:11.355Z,15.07
2023-04-09T09:54:17.775Z,16.68
2023-04-09T09:59:22.585Z,15.63
2023-04-09T10:04:29.644Z,15.48
2023-04-09T10:09:35.948Z,16.61
2023-04-09T10:14:40.329Z,15.43
2023-04-09T10:19:52.879Z,15.66
2023-04-09T10:24:56.061Z,16.86
2023-04-09T10:30:00.343Z,15.32
2023-04-09T10:35:04.272Z,14.36
2023-04-09T10:40:20.532Z,14.78
2023-04-09T10:45:23.366Z,16.23
2023-04-09T10:50:32.564Z,14.96
2023-04-09T10:55:42.135Z,15.01
2023-04-09T11:00:48.434Z,17.20
2023-04-09T11:05:56.776Z,16.54
2023-04-09T11:11:01.957Z,15.81
2023-04-09T11:16:07.511Z,15.39
2023-04-09T11:21:14.103Z,15.21
2023-04-09T11:26:17.094Z,16.68
2023-04-09T11:31:26.749Z,17.45
2023-04-09T11:36:29.610Z,16.34
2023-04-09T11:41:37.571Z,15.80
2023-04-09T11:46:42.278Z,15.24
2023-04-09T11:51:46.216Z,16.14
2023-04-09T11:56:56.105Z,17.22
2023-04-09T12:01:59.667Z,16.37
2023-04-09T12:07:03.628Z,15.90
2023-04-09T12:12:08.988Z,15.54
2023-04-09T12:17:11.835Z,16.53
2023-04-09T12:22:15.349Z,17.74
2023-04-09T12:27:18.830Z,16.79
2023-04-09T12:32:23.054Z,16.30
2023-04-09T12:37:29.304Z,16.00
2023-04-09T12:42:35.541Z,15.70
2023-04-09T12:47:40.009Z,15.61
2023-04-09T12:52:44.422Z,17.49
2023-04-09T12:57:50.896Z,17.29
2023-04-09T13:02:53.894Z,16.48
2023-04-09T13:07:57.305Z,16.11
2023-04-09T13:13:00.306Z,15.89
2023-04-09T13:18:06.838Z,15.86
2023-04-09T13:23:10.990Z,15.89
2023-04-09T13:28:13.937Z,15.92
2023-04-09T13:33:16.835Z,16.02
2023-04-09T13:38:21.088Z,16.14
2023-04-09T13:43:28.586Z,16.23
2023-04-09T13:48:31.736Z,16.26
2023-04-09T13:53:34.748Z,16.30
2023-04-09T13:58:37.686Z,16.27
2023-04-09T14:03:41.084Z,16.37
2023-04-09T14:08:44.246Z,16.40
2023-04-09T14:13:49.190Z,16.44
2023-04-09T14:18:52.111Z,16.52
2023-04-09T14:23:55.359Z,16.58
2023-04-09T14:28:58.096Z,16.47
2023-04-09T14:34:00.898Z,16.19
2023-04-09T14:39:03.742Z,16.05
2023-04-09T14:44:06.613Z,15.90
2023-04-09T14:49:09.845Z,15.78
2023-04-09T14:54:12.646Z,15.69
2023-04-09T14:59:15.654Z,15.59
2023-04-09T15:04:19.003Z,15.53
2023-04-09T15:09:21.910Z,15.54
2023-04-09T15:14:24.828Z,17.34
2023-04-09T15:19:27.999Z,17.46
2023-04-09T15:24:31.055Z,16.64
2023-04-09T15:29:34.306Z,16.28
2023-04-09T15:34:37.479Z,16.03
2023-04-09T15:39:40.565Z,15.80
2023-04-09T15:44:43.375Z,15.54
2023-04-09T15:49:46.334Z,15.36
2023-04-09T15:54:51.447Z,15.19
2023-04-09T15:59:54.356Z,15.08
2023-04-09T16:04:57.352Z,14.92
2023-04-09T16:10:02.016Z,14.79
2023-04-09T16:15:05.433Z,14.57
2023-04-09T16:20:08.569Z,14.33
2023-04-09T16:25:11.676Z,14.74
2023-04-09T16:30:14.650Z,16.14
2023-04-09T16:35:17.656Z,14.97
2023-04-09T16:40:24.322Z,14.17
2023-04-09T16:45:29.671Z,13.68
2023-04-09T16:50:33.379Z,13.56
2023-04-09T16:55:37.693Z,15.68
2023-04-09T17:00:40.901Z,15.46
2023-04-09T17:05:49.661Z,14.20
2023-04-09T17:10:56.217Z,13.42
2023-04-09T17:15:59.415Z,12.82
2023-04-09T17:21:02.965Z,12.46
2023-04-09T17:26:05.886Z,14.07
2023-04-09T17:31:13.651Z,15.25
2023-04-09T17:36:19.128Z,13.81
2023-04-09T17:41:22.985Z,12.84
2023-04-09T17:46:29.519Z,12.23
2023-04-09T17:51:32.636Z,13.42
2023-04-09T17:56:39.072Z,14.84
2023-04-09T18:01:42.246Z,13.38
2023-04-09T18:06:45.199Z,12.32
2023-04-09T18:11:49.045Z,12.59
2023-04-09T18:16:52.988Z,14.27
2023-04-09T18:21:56.174Z,12.93
2023-04-09T18:27:00.349Z,11.80
2023-04-09T18:32:03.626Z,12.75
2023-04-09T18:37:07.741Z,14.64
2023-04-09T18:42:10.804Z,13.45
2023-04-09T18:47:13.699Z,12.12
2023-04-09T18:52:17.660Z,11.30
2023-04-09T18:57:20.610Z,11.79
2023-04-09T19:02:23.526Z,14.26
2023-04-09T19:07:26.490Z,14.60
2023-04-09T19:12:29.790Z,12.86
2023-04-09T19:17:34.135Z,11.81
2023-04-09T19:22:36.982Z,11.08
2023-04-09T19:27:39.874Z,11.98
2023-04-09T19:32:46.012Z,14.13
2023-04-09T19:37:49.435Z,13.35
2023-04-09T19:42:52.345Z,11.82
2023-04-09T19:47:56.020Z,10.95
2023-04-09T19:52:58.905Z,10.36
2023-04-09T19:58:03.523Z,11.38
2023-04-09T20:03:07.163Z,13.74
2023-04-09T20:08:14.167Z,13.19
2023-04-09T20:13:18.516Z,11.48
2023-04-09T20:18:21.444Z,10.56
2023-04-09T20:23:24.319Z,9.97
2023-04-09T20:28:27.941Z,10.61
2023-04-09T20:33:32.171Z,13.04
2023-04-09T20:38:37.278Z,13.32
2023-04-09T20:43:40.235Z,11.60
2023-04-09T20:48:43.451Z,10.58
2023-04-09T20:53:46.275Z,10.86
2023-04-09T20:58:49.111Z,13.13
2023-04-09T21:03:52.508Z,13.37
2023-04-09T21:08:56.398Z,11.49
2023-04-09T21:13:59.739Z,10.31
2023-04-09T21:19:07.238Z,10.53
2023-04-09T21:24:10.600Z,12.74
2023-04-09T21:29:13.499Z,12.27
2023-04-09T21:34:18.715Z,10.36
2023-04-09T21:39:21.659Z,9.29
2023-04-09T21:44:24.510Z,9.72
2023-04-09T21:49:27.972Z,12.21
2023-04-09T21:54:31.569Z,12.60
2023-04-09T21:59:41.045Z,10.70
2023-04-09T22:04:44.015Z,9.51
2023-04-09T22:09:47.477Z,9.86
2023-04-09T22:14:50.441Z,12.19
2023-04-09T22:19:53.296Z,12.49
2023-04-09T22:24:56.747Z,10.60
2023-04-09T22:30:02.086Z,9.46
2023-04-09T22:35:06.937Z,9.81
2023-04-09T22:40:14.386Z,12.57
2023-04-09T22:45:17.203Z,12.89
2023-04-09T22:50:20.113Z,10.70
2023-04-09T22:55:23.503Z,9.44
2023-04-09T23:00:26.433Z,10.03
2023-04-09T23:05:29.270Z,12.60
2023-04-09T23:10:33.954Z,11.39
2023-04-09T23:15:36.890Z,9.69
2023-04-09T23:20:39.721Z,9.68
2023-04-09T23:25:42.698Z,11.78
2023-04-09T23:30:45.592Z,11.82
2023-04-09T23:35:48.500Z,9.84
2023-04-09T23:40:51.316Z,9.52
2023-04-09T23:45:54.105Z,11.66
2023-04-09T23:50:56.928Z,11.70
2023-04-09T23:55:59.727Z,9.70
